sensor_id;sensor_type;location;lat;lon;timestamp;temperature;humidity
44579;DHT22;37422;51.402;0.016;2023-01-13T00:02:04;8.10;99.90
44579;DHT22;37422;51.402;0.016;2023-01-13T00:04:55;8.10;99.90
44579;DHT22;37422;51.402;0.016;2023-01-13T00:07:24;8.10;99.90
44579;DHT22;37422;51.402;0.016;2023-01-13T00:09:56;8.00;99.90
44579;DHT22;37422;51.402;0.016;2023-01-13T00:12:41;8.00;99.90
44579;DHT22;37422;51.402;0.016;2023-01-13T00:15:26;8.00;99.90
44579;DHT22;37422;51.402;0.016;2023-01-13T00:18:43;8.00;99.90
44579;DHT22;37422;51.402;0.016;2023-01-13T00:21:18;8.10;99.90
44579;DHT22;37422;51.402;0.016;2023-01-13T00:23:56;8.10;99.90
44579;DHT22;37422;51.402;0.016;2023-01-13T00:26:26;8.10;99.90
44579;DHT22;37422;51.402;0.016;2023-01-13T00:28:57;8.10;99.90
44579;DHT22;37422;51.402;0.016;2023-01-13T00:31:28;8.10;99.90
44579;DHT22;37422;51.402;0.016;2023-01-13T00:33:58;8.10;99.90
44579;DHT22;37422;51.402;0.016;2023-01-13T00:36:26;8.10;99.90
44579;DHT22;37422;51.402;0.016;2023-01-13T00:38:57;8.10;99.90
44579;DHT22;37422;51.402;0.016;2023-01-13T00:41:27;8.10;99.90
44579;DHT22;37422;51.402;0.016;2023-01-13T00:44:18;8.10;99.90
44579;DHT22;37422;51.402;0.016;2023-01-13T00:46:48;8.00;99.90
44579;DHT22;37422;51.402;0.016;2023-01-13T00:49:17;8.00;99.90
44579;DHT22;37422;51.402;0.016;2023-01-13T00:51:50;7.90;99.90
44579;DHT22;37422;51.402;0.016;2023-01-13T00:54:18;7.90;99.90
44579;DHT22;37422;51.402;0.016;2023-01-13T00:56:46;7.90;99.90
44579;DHT22;37422;51.402;0.016;2023-01-13T00:59:13;7.90;99.90
44579;DHT22;37422;51.402;0.016;2023-01-13T01:01:43;7.90;99.90
44579;DHT22;37422;51.402;0.016;2023-01-13T01:04:11;7.90;99.90
44579;DHT22;37422;51.402;0.016;2023-01-13T01:06:39;7.90;99.90
44579;DHT22;37422;51.402;0.016;2023-01-13T01:09:12;7.90;99.90
44579;DHT22;37422;51.402;0.016;2023-01-13T01:11:40;7.90;99.90
44579;DHT22;37422;51.402;0.016;2023-01-13T01:14:13;7.90;99.90
44579;DHT22;37422;51.402;0.016;2023-01-13T01:16:43;7.90;99.90
44579;DHT22;37422;51.402;0.016;2023-01-13T01:19:14;7.80;99.90
44579;DHT22;37422;51.402;0.016;2023-01-13T01:21:42;7.80;99.90
44579;DHT22;37422;51.402;0.016;2023-01-13T01:24:20;7.80;99.90
44579;DHT22;37422;51.402;0.016;2023-01-13T01:26:48;7.80;99.90
44579;DHT22;37422;51.402;0.016;2023-01-13T01:29:25;7.80;99.90
44579;DHT22;37422;51.402;0.016;2023-01-13T01:31:56;7.70;99.90
44579;DHT22;37422;51.402;0.016;2023-01-13T01:34:25;7.70;99.90
44579;DHT22;37422;51.402;0.016;2023-01-13T01:36:56;7.70;99.90
44579;DHT22;37422;51.402;0.016;2023-01-13T01:39:26;7.70;99.90
44579;DHT22;37422;51.402;0.016;2023-01-13T01:41:53;7.70;99.90
44579;DHT22;37422;51.402;0.016;2023-01-13T01:45:22;7.70;99.90
44579;DHT22;37422;51.402;0.016;2023-01-13T01:48:00;7.70;99.90
44579;DHT22;37422;51.402;0.016;2023-01-13T01:50:30;7.70;99.90
44579;DHT22;37422;51.402;0.016;2023-01-13T01:53:05;7.70;99.90
44579;DHT22;37422;51.402;0.016;2023-01-13T01:55:35;7.60;99.90
44579;DHT22;37422;51.402;0.016;2023-01-13T01:58:12;7.60;99.90
44579;DHT22;37422;51.402;0.016;2023-01-13T02:00:44;7.70;99.90
44579;DHT22;37422;51.402;0.016;2023-01-13T02:03:18;7.60;99.90
44579;DHT22;37422;51.402;0.016;2023-01-13T02:05:49;7.60;99.90
44579;DHT22;37422;51.402;0.016;2023-01-13T02:08:42;7.60;99.90
44579;DHT22;37422;51.402;0.016;2023-01-13T02:16:26;7.50;99.90
44579;DHT22;37422;51.402;0.016;2023-01-13T02:38:33;7.60;99.90
44579;DHT22;37422;51.402;0.016;2023-01-13T02:42:48;7.60;99.90
44579;DHT22;37422;51.402;0.016;2023-01-13T02:45:49;7.50;99.90
44579;DHT22;37422;51.402;0.016;2023-01-13T02:48:38;7.50;99.90
44579;DHT22;37422;51.402;0.016;2023-01-13T02:51:21;7.50;99.90
44579;DHT22;37422;51.402;0.016;2023-01-13T02:54:11;7.50;99.90
44579;DHT22;37422;51.402;0.016;2023-01-13T02:57:14;7.50;99.90
44579;DHT22;37422;51.402;0.016;2023-01-13T02:59:48;7.50;99.90
44579;DHT22;37422;51.402;0.016;2023-01-13T03:02:40;7.50;99.90
44579;DHT22;37422;51.402;0.016;2023-01-13T03:05:37;7.50;99.90
44579;DHT22;37422;51.402;0.016;2023-01-13T03:08:43;7.50;99.90
44579;DHT22;37422;51.402;0.016;2023-01-13T03:11:21;7.50;99.90
44579;DHT22;37422;51.402;0.016;2023-01-13T03:20:23;7.50;99.90
44579;DHT22;37422;51.402;0.016;2023-01-13T03:26:46;7.50;99.90
44579;DHT22;37422;51.402;0.016;2023-01-13T03:30:13;7.50;99.90
44579;DHT22;37422;51.402;0.016;2023-01-13T03:33:22;7.60;99.90
44579;DHT22;37422;51.402;0.016;2023-01-13T03:36:12;7.60;99.90
44579;DHT22;37422;51.402;0.016;2023-01-13T03:38:57;7.60;99.90
44579;DHT22;37422;51.402;0.016;2023-01-13T03:41:58;7.60;99.90
44579;DHT22;37422;51.402;0.016;2023-01-13T03:45:02;7.70;99.90
44579;DHT22;37422;51.402;0.016;2023-01-13T03:47:47;7.60;99.90
44579;DHT22;37422;51.402;0.016;2023-01-13T03:50:40;7.60;99.90
44579;DHT22;37422;51.402;0.016;2023-01-13T03:53:49;7.50;99.90
44579;DHT22;37422;51.402;0.016;2023-01-13T03:56:43;7.50;99.90
44579;DHT22;37422;51.402;0.016;2023-01-13T03:59:35;7.50;99.90
44579;DHT22;37422;51.402;0.016;2023-01-13T04:05:36;7.60;99.90
44579;DHT22;37422;51.402;0.016;2023-01-13T04:08:22;7.50;99.90
44579;DHT22;37422;51.402;0.016;2023-01-13T04:11:13;7.50;99.90
44579;DHT22;37422;51.402;0.016;2023-01-13T04:13:46;7.50;99.90
44579;DHT22;37422;51.402;0.016;2023-01-13T04:16:23;7.50;99.90
44579;DHT22;37422;51.402;0.016;2023-01-13T04:18:59;7.50;99.90
44579;DHT22;37422;51.402;0.016;2023-01-13T04:21:30;7.50;99.90
44579;DHT22;37422;51.402;0.016;2023-01-13T04:24:10;7.60;99.90
44579;DHT22;37422;51.402;0.016;2023-01-13T04:26:58;7.70;99.90
44579;DHT22;37422;51.402;0.016;2023-01-13T04:29:32;7.80;99.90
44579;DHT22;37422;51.402;0.016;2023-01-13T04:32:03;7.80;99.90
44579;DHT22;37422;51.402;0.016;2023-01-13T04:34:37;7.80;99.90
44579;DHT22;37422;51.402;0.016;2023-01-13T04:37:06;7.90;99.90
44579;DHT22;37422;51.402;0.016;2023-01-13T04:39:47;7.80;99.90
44579;DHT22;37422;51.402;0.016;2023-01-13T04:42:22;7.80;99.90
44579;DHT22;37422;51.402;0.016;2023-01-13T04:44:56;7.70;99.90
44579;DHT22;37422;51.402;0.016;2023-01-13T04:47:28;7.60;99.90
44579;DHT22;37422;51.402;0.016;2023-01-13T04:50:04;7.60;99.90
44579;DHT22;37422;51.402;0.016;2023-01-13T04:56:14;7.50;99.90
44579;DHT22;37422;51.402;0.016;2023-01-13T04:58:43;7.50;99.90
44579;DHT22;37422;51.402;0.016;2023-01-13T05:01:32;7.50;99.90
44579;DHT22;37422;51.402;0.016;2023-01-13T05:04:19;7.50;99.90
44579;DHT22;37422;51.402;0.016;2023-01-13T05:07:48;7.50;99.90
44579;DHT22;37422;51.402;0.016;2023-01-13T05:10:44;7.40;99.90
44579;DHT22;37422;51.402;0.016;2023-01-13T05:13:17;7.40;99.90
44579;DHT22;37422;51.402;0.016;2023-01-13T05:19:36;7.40;99.90
44579;DHT22;37422;51.402;0.016;2023-01-13T05:22:30;7.40;99.90
44579;DHT22;37422;51.402;0.016;2023-01-13T05:25:39;7.40;99.90
44579;DHT22;37422;51.402;0.016;2023-01-13T05:28:49;7.40;99.90
44579;DHT22;37422;51.402;0.016;2023-01-13T05:31:54;7.40;99.90
44579;DHT22;37422;51.402;0.016;2023-01-13T05:34:47;7.50;99.90
44579;DHT22;37422;51.402;0.016;2023-01-13T05:37:22;7.50;99.90
44579;DHT22;37422;51.402;0.016;2023-01-13T05:40:17;7.50;99.90
44579;DHT22;37422;51.402;0.016;2023-01-13T05:43:07;7.40;99.90
44579;DHT22;37422;51.402;0.016;2023-01-13T05:46:03;7.50;99.90
44579;DHT22;37422;51.402;0.016;2023-01-13T05:48:53;7.40;99.90
44579;DHT22;37422;51.402;0.016;2023-01-13T05:51:47;7.40;99.90
44579;DHT22;37422;51.402;0.016;2023-01-13T05:54:35;7.50;99.90
44579;DHT22;37422;51.402;0.016;2023-01-13T05:57:04;7.50;99.90
44579;DHT22;37422;51.402;0.016;2023-01-13T06:02:49;7.40;99.90
44579;DHT22;37422;51.402;0.016;2023-01-13T06:06:04;7.50;99.90
44579;DHT22;37422;51.402;0.016;2023-01-13T06:08:42;7.40;99.90
44579;DHT22;37422;51.402;0.016;2023-01-13T06:11:17;7.40;99.90
44579;DHT22;37422;51.402;0.016;2023-01-13T06:14:02;7.40;99.90
44579;DHT22;37422;51.402;0.016;2023-01-13T06:16:39;7.40;99.90
44579;DHT22;37422;51.402;0.016;2023-01-13T06:19:34;7.40;99.90
44579;DHT22;37422;51.402;0.016;2023-01-13T06:22:23;7.30;99.90
44579;DHT22;37422;51.402;0.016;2023-01-13T06:25:02;7.40;99.90
44579;DHT22;37422;51.402;0.016;2023-01-13T06:27:58;7.40;99.90
44579;DHT22;37422;51.402;0.016;2023-01-13T06:30:37;7.40;99.90
44579;DHT22;37422;51.402;0.016;2023-01-13T06:33:15;7.40;99.90
44579;DHT22;37422;51.402;0.016;2023-01-13T06:35:55;7.40;99.90
44579;DHT22;37422;51.402;0.016;2023-01-13T06:38:32;7.40;99.90
44579;DHT22;37422;51.402;0.016;2023-01-13T06:41:08;7.40;99.90
44579;DHT22;37422;51.402;0.016;2023-01-13T06:43:50;7.40;99.90
44579;DHT22;37422;51.402;0.016;2023-01-13T06:46:36;7.50;99.90
44579;DHT22;37422;51.402;0.016;2023-01-13T06:49:31;7.50;99.90
44579;DHT22;37422;51.402;0.016;2023-01-13T06:52:10;7.50;99.90
44579;DHT22;37422;51.402;0.016;2023-01-13T06:55:18;7.50;99.90
44579;DHT22;37422;51.402;0.016;2023-01-13T06:58:00;7.50;99.90
44579;DHT22;37422;51.402;0.016;2023-01-13T07:00:38;7.50;99.90
44579;DHT22;37422;51.402;0.016;2023-01-13T07:03:37;7.40;99.90
44579;DHT22;37422;51.402;0.016;2023-01-13T07:06:28;7.50;99.90
44579;DHT22;37422;51.402;0.016;2023-01-13T07:09:24;7.50;99.90
44579;DHT22;37422;51.402;0.016;2023-01-13T07:12:07;7.60;99.90
44579;DHT22;37422;51.402;0.016;2023-01-13T07:14:43;7.60;99.90
44579;DHT22;37422;51.402;0.016;2023-01-13T07:18:34;7.70;99.90
44579;DHT22;37422;51.402;0.016;2023-01-13T07:24:43;7.80;99.90
44579;DHT22;37422;51.402;0.016;2023-01-13T07:27:32;7.80;99.90
44579;DHT22;37422;51.402;0.016;2023-01-13T07:30:14;7.90;99.90
44579;DHT22;37422;51.402;0.016;2023-01-13T07:33:07;7.90;99.90
44579;DHT22;37422;51.402;0.016;2023-01-13T07:36:23;7.80;99.90
44579;DHT22;37422;51.402;0.016;2023-01-13T07:39:35;7.80;99.90
44579;DHT22;37422;51.402;0.016;2023-01-13T07:42:57;7.70;99.90
44579;DHT22;37422;51.402;0.016;2023-01-13T07:46:07;7.70;99.90
44579;DHT22;37422;51.402;0.016;2023-01-13T07:48:46;7.70;99.90
44579;DHT22;37422;51.402;0.016;2023-01-13T07:51:30;7.70;99.90
44579;DHT22;37422;51.402;0.016;2023-01-13T07:54:34;7.60;99.90
44579;DHT22;37422;51.402;0.016;2023-01-13T07:57:52;7.60;99.90
44579;DHT22;37422;51.402;0.016;2023-01-13T08:02:11;7.50;99.90
44579;DHT22;37422;51.402;0.016;2023-01-13T08:04:55;7.50;99.90
44579;DHT22;37422;51.402;0.016;2023-01-13T08:07:24;7.50;99.90
44579;DHT22;37422;51.402;0.016;2023-01-13T08:09:53;7.50;99.90
44579;DHT22;37422;51.402;0.016;2023-01-13T08:12:35;7.60;99.90
44579;DHT22;37422;51.402;0.016;2023-01-13T08:19:15;7.70;99.90
44579;DHT22;37422;51.402;0.016;2023-01-13T08:21:53;7.70;99.90
44579;DHT22;37422;51.402;0.016;2023-01-13T08:24:21;7.70;99.90
44579;DHT22;37422;51.402;0.016;2023-01-13T08:26:53;7.70;99.90
44579;DHT22;37422;51.402;0.016;2023-01-13T08:29:28;7.70;99.90
44579;DHT22;37422;51.402;0.016;2023-01-13T08:31:56;7.70;99.90
44579;DHT22;37422;51.402;0.016;2023-01-13T08:34:25;7.70;99.90
44579;DHT22;37422;51.402;0.016;2023-01-13T08:36:56;7.80;99.90
44579;DHT22;37422;51.402;0.016;2023-01-13T08:39:24;7.80;99.90
44579;DHT22;37422;51.402;0.016;2023-01-13T08:41:52;7.80;99.90
44579;DHT22;37422;51.402;0.016;2023-01-13T08:44:41;7.90;99.90
44579;DHT22;37422;51.402;0.016;2023-01-13T08:47:15;8.00;99.90
44579;DHT22;37422;51.402;0.016;2023-01-13T08:49:49;8.00;99.90
44579;DHT22;37422;51.402;0.016;2023-01-13T08:52:18;8.00;99.90
44579;DHT22;37422;51.402;0.016;2023-01-13T08:54:51;8.10;99.90
44579;DHT22;37422;51.402;0.016;2023-01-13T08:57:19;8.10;99.90
44579;DHT22;37422;51.402;0.016;2023-01-13T08:59:48;8.10;99.90
44579;DHT22;37422;51.402;0.016;2023-01-13T09:02:21;8.20;99.90
44579;DHT22;37422;51.402;0.016;2023-01-13T09:04:50;8.30;99.90
44579;DHT22;37422;51.402;0.016;2023-01-13T09:07:20;8.50;99.90
44579;DHT22;37422;51.402;0.016;2023-01-13T09:09:50;8.50;99.90
44579;DHT22;37422;51.402;0.016;2023-01-13T09:12:19;8.50;99.90
44579;DHT22;37422;51.402;0.016;2023-01-13T09:15:05;8.50;99.90
44579;DHT22;37422;51.402;0.016;2023-01-13T09:17:33;8.60;99.90
44579;DHT22;37422;51.402;0.016;2023-01-13T09:20:07;8.80;99.90
44579;DHT22;37422;51.402;0.016;2023-01-13T09:22:41;9.00;99.90
44579;DHT22;37422;51.402;0.016;2023-01-13T09:25:12;9.10;99.90
44579;DHT22;37422;51.402;0.016;2023-01-13T09:27:40;9.10;99.90
44579;DHT22;37422;51.402;0.016;2023-01-13T09:30:09;9.20;99.90
44579;DHT22;37422;51.402;0.016;2023-01-13T09:32:36;9.20;99.90
44579;DHT22;37422;51.402;0.016;2023-01-13T09:35:06;9.20;99.90
44579;DHT22;37422;51.402;0.016;2023-01-13T09:37:45;9.30;99.90
44579;DHT22;37422;51.402;0.016;2023-01-13T09:40:18;9.30;99.90
44579;DHT22;37422;51.402;0.016;2023-01-13T09:43:20;9.40;99.90
44579;DHT22;37422;51.402;0.016;2023-01-13T09:46:43;9.40;99.90
44579;DHT22;37422;51.402;0.016;2023-01-13T09:49:35;9.40;99.90
44579;DHT22;37422;51.402;0.016;2023-01-13T09:52:16;9.40;99.90
44579;DHT22;37422;51.402;0.016;2023-01-13T09:57:27;9.30;99.90
44579;DHT22;37422;51.402;0.016;2023-01-13T09:59:59;9.20;99.90
44579;DHT22;37422;51.402;0.016;2023-01-13T10:05:39;9.50;99.90
44579;DHT22;37422;51.402;0.016;2023-01-13T10:08:37;9.90;99.90
44579;DHT22;37422;51.402;0.016;2023-01-13T10:14:19;10.30;99.90
44579;DHT22;37422;51.402;0.016;2023-01-13T10:17:27;10.40;99.90
44579;DHT22;37422;51.402;0.016;2023-01-13T10:28:24;10.40;99.90
44579;DHT22;37422;51.402;0.016;2023-01-13T10:30:52;10.40;99.90
44579;DHT22;37422;51.402;0.016;2023-01-13T10:33:23;10.50;99.90
44579;DHT22;37422;51.402;0.016;2023-01-13T10:38:42;10.60;99.90
44579;DHT22;37422;51.402;0.016;2023-01-13T10:41:18;10.60;99.90
44579;DHT22;37422;51.402;0.016;2023-01-13T10:44:01;10.70;99.90
44579;DHT22;37422;51.402;0.016;2023-01-13T10:46:33;10.80;99.90
44579;DHT22;37422;51.402;0.016;2023-01-13T10:49:39;10.90;99.90
44579;DHT22;37422;51.402;0.016;2023-01-13T10:52:37;11.10;99.90
44579;DHT22;37422;51.402;0.016;2023-01-13T10:55:28;11.50;99.90
44579;DHT22;37422;51.402;0.016;2023-01-13T10:57:56;11.70;99.90
44579;DHT22;37422;51.402;0.016;2023-01-13T11:00:46;11.90;99.90
44579;DHT22;37422;51.402;0.016;2023-01-13T11:03:24;12.10;99.90
44579;DHT22;37422;51.402;0.016;2023-01-13T11:05:56;12.50;99.90
44579;DHT22;37422;51.402;0.016;2023-01-13T11:08:39;12.80;99.90
44579;DHT22;37422;51.402;0.016;2023-01-13T11:11:37;13.10;99.90
44579;DHT22;37422;51.402;0.016;2023-01-13T11:14:37;13.70;99.90
44579;DHT22;37422;51.402;0.016;2023-01-13T11:17:13;14.20;99.90
44579;DHT22;37422;51.402;0.016;2023-01-13T11:20:12;14.90;99.90
44579;DHT22;37422;51.402;0.016;2023-01-13T11:22:52;15.50;99.90
44579;DHT22;37422;51.402;0.016;2023-01-13T11:25:37;16.00;99.90
44579;DHT22;37422;51.402;0.016;2023-01-13T11:28:18;16.10;99.90
44579;DHT22;37422;51.402;0.016;2023-01-13T11:30:55;16.10;99.90
44579;DHT22;37422;51.402;0.016;2023-01-13T11:38:53;15.70;99.90
44579;DHT22;37422;51.402;0.016;2023-01-13T11:41:46;15.20;98.90
44579;DHT22;37422;51.402;0.016;2023-01-13T11:44:42;14.70;99.40
44579;DHT22;37422;51.402;0.016;2023-01-13T11:47:15;14.20;99.40
44579;DHT22;37422;51.402;0.016;2023-01-13T11:49:45;13.80;99.90
44579;DHT22;37422;51.402;0.016;2023-01-13T11:53:03;13.50;99.90
44579;DHT22;37422;51.402;0.016;2023-01-13T12:01:42;13.10;99.90
44579;DHT22;37422;51.402;0.016;2023-01-13T12:04:28;12.90;99.90
44579;DHT22;37422;51.402;0.016;2023-01-13T12:10:37;12.60;99.90
44579;DHT22;37422;51.402;0.016;2023-01-13T12:16:06;12.70;99.90
44579;DHT22;37422;51.402;0.016;2023-01-13T12:21:31;13.20;99.90
44579;DHT22;37422;51.402;0.016;2023-01-13T12:26:50;14.00;99.90
44579;DHT22;37422;51.402;0.016;2023-01-13T12:29:29;14.50;99.90
44579;DHT22;37422;51.402;0.016;2023-01-13T12:32:00;15.10;99.90
44579;DHT22;37422;51.402;0.016;2023-01-13T12:37:53;16.10;98.60
44579;DHT22;37422;51.402;0.016;2023-01-13T12:40:54;16.50;97.60
44579;DHT22;37422;51.402;0.016;2023-01-13T12:43:26;16.90;96.80
44579;DHT22;37422;51.402;0.016;2023-01-13T12:51:36;16.50;97.30
44579;DHT22;37422;51.402;0.016;2023-01-13T12:56:57;16.20;97.20
44579;DHT22;37422;51.402;0.016;2023-01-13T13:02:21;16.30;98.10
44579;DHT22;37422;51.402;0.016;2023-01-13T13:05:43;16.60;96.80
44579;DHT22;37422;51.402;0.016;2023-01-13T13:07:48;16.60;97.10
44579;DHT22;37422;51.402;0.016;2023-01-13T13:10:36;16.40;97.30
44579;DHT22;37422;51.402;0.016;2023-01-13T13:13:11;16.10;96.20
44579;DHT22;37422;51.402;0.016;2023-01-13T13:15:50;15.60;96.40
44579;DHT22;37422;51.402;0.016;2023-01-13T13:18:24;14.90;97.60
44579;DHT22;37422;51.402;0.016;2023-01-13T13:21:06;14.40;98.10
44579;DHT22;37422;51.402;0.016;2023-01-13T13:23:38;14.00;98.90
44579;DHT22;37422;51.402;0.016;2023-01-13T13:26:45;13.60;99.10
44579;DHT22;37422;51.402;0.016;2023-01-13T13:29:56;13.20;99.00
44579;DHT22;37422;51.402;0.016;2023-01-13T13:42:00;12.10;99.90
44579;DHT22;37422;51.402;0.016;2023-01-13T13:45:02;11.80;99.90
44579;DHT22;37422;51.402;0.016;2023-01-13T13:47:53;11.60;99.90
44579;DHT22;37422;51.402;0.016;2023-01-13T13:50:29;11.50;99.90
44579;DHT22;37422;51.402;0.016;2023-01-13T13:53:11;11.50;99.90
44579;DHT22;37422;51.402;0.016;2023-01-13T13:55:55;11.50;99.90
44579;DHT22;37422;51.402;0.016;2023-01-13T13:58:33;11.50;99.90
44579;DHT22;37422;51.402;0.016;2023-01-13T14:01:21;11.50;99.90
44579;DHT22;37422;51.402;0.016;2023-01-13T14:04:32;11.50;99.90
44579;DHT22;37422;51.402;0.016;2023-01-13T14:07:28;11.50;99.90
44579;DHT22;37422;51.402;0.016;2023-01-13T14:09:57;11.50;99.90
44579;DHT22;37422;51.402;0.016;2023-01-13T14:12:36;11.50;99.90
44579;DHT22;37422;51.402;0.016;2023-01-13T14:15:31;11.40;99.90
44579;DHT22;37422;51.402;0.016;2023-01-13T14:18:17;11.40;99.90
44579;DHT22;37422;51.402;0.016;2023-01-13T14:21:21;11.30;99.90
44579;DHT22;37422;51.402;0.016;2023-01-13T14:24:16;11.30;99.90
44579;DHT22;37422;51.402;0.016;2023-01-13T14:27:18;11.30;99.90
44579;DHT22;37422;51.402;0.016;2023-01-13T14:30:00;11.30;99.90
44579;DHT22;37422;51.402;0.016;2023-01-13T14:32:42;11.30;99.90
44579;DHT22;37422;51.402;0.016;2023-01-13T14:35:33;11.30;99.90
44579;DHT22;37422;51.402;0.016;2023-01-13T14:38:17;11.30;99.90
44579;DHT22;37422;51.402;0.016;2023-01-13T14:41:11;11.20;99.90
44579;DHT22;37422;51.402;0.016;2023-01-13T14:47:24;11.20;99.90
44579;DHT22;37422;51.402;0.016;2023-01-13T14:50:17;11.10;99.90
44579;DHT22;37422;51.402;0.016;2023-01-13T14:52:54;11.10;99.90
44579;DHT22;37422;51.402;0.016;2023-01-13T14:55:53;11.00;99.90
44579;DHT22;37422;51.402;0.016;2023-01-13T14:58:46;11.00;99.90
44579;DHT22;37422;51.402;0.016;2023-01-13T15:09:58;10.80;99.90
44579;DHT22;37422;51.402;0.016;2023-01-13T15:12:55;10.70;99.90
44579;DHT22;37422;51.402;0.016;2023-01-13T15:16:24;10.70;99.90
44579;DHT22;37422;51.402;0.016;2023-01-13T15:19:07;10.60;99.90
44579;DHT22;37422;51.402;0.016;2023-01-13T15:22:02;10.50;99.90
44579;DHT22;37422;51.402;0.016;2023-01-13T15:25:04;10.50;99.90
44579;DHT22;37422;51.402;0.016;2023-01-13T15:28:24;10.30;99.90
44579;DHT22;37422;51.402;0.016;2023-01-13T15:31:14;10.20;99.90
44579;DHT22;37422;51.402;0.016;2023-01-13T15:33:59;10.10;99.90
44579;DHT22;37422;51.402;0.016;2023-01-13T15:36:32;10.10;99.90
44579;DHT22;37422;51.402;0.016;2023-01-13T15:39:26;10.00;99.90
44579;DHT22;37422;51.402;0.016;2023-01-13T15:42:28;9.90;99.90
44579;DHT22;37422;51.402;0.016;2023-01-13T15:45:18;9.80;99.90
44579;DHT22;37422;51.402;0.016;2023-01-13T15:48:38;9.70;99.90
44579;DHT22;37422;51.402;0.016;2023-01-13T16:00:36;9.40;99.90
44579;DHT22;37422;51.402;0.016;2023-01-13T16:11:21;9.40;99.90
44579;DHT22;37422;51.402;0.016;2023-01-13T16:14:25;9.40;99.90
44579;DHT22;37422;51.402;0.016;2023-01-13T16:17:37;9.30;99.90
44579;DHT22;37422;51.402;0.016;2023-01-13T16:20:16;9.30;99.90
44579;DHT22;37422;51.402;0.016;2023-01-13T16:22:48;9.20;99.90
44579;DHT22;37422;51.402;0.016;2023-01-13T16:25:22;9.20;99.90
44579;DHT22;37422;51.402;0.016;2023-01-13T16:27:55;9.20;99.90
44579;DHT22;37422;51.402;0.016;2023-01-13T16:30:30;9.10;99.90
44579;DHT22;37422;51.402;0.016;2023-01-13T16:33:07;9.40;99.90
44579;DHT22;37422;51.402;0.016;2023-01-13T16:36:03;9.10;99.90
44579;DHT22;37422;51.402;0.016;2023-01-13T16:39:20;9.10;99.90
44579;DHT22;37422;51.402;0.016;2023-01-13T16:42:07;9.00;99.90
44579;DHT22;37422;51.402;0.016;2023-01-13T16:44:54;8.80;99.90
44579;DHT22;37422;51.402;0.016;2023-01-13T16:47:23;9.00;99.90
44579;DHT22;37422;51.402;0.016;2023-01-13T16:49:52;8.90;99.90
44579;DHT22;37422;51.402;0.016;2023-01-13T16:52:20;8.90;99.90
44579;DHT22;37422;51.402;0.016;2023-01-13T16:54:53;8.90;99.90
44579;DHT22;37422;51.402;0.016;2023-01-13T16:57:22;8.90;99.90
44579;DHT22;37422;51.402;0.016;2023-01-13T17:00:02;8.90;99.90
44579;DHT22;37422;51.402;0.016;2023-01-13T17:02:36;8.90;99.90
44579;DHT22;37422;51.402;0.016;2023-01-13T17:05:04;8.90;99.90
44579;DHT22;37422;51.402;0.016;2023-01-13T17:07:33;8.90;99.90
44579;DHT22;37422;51.402;0.016;2023-01-13T17:10:03;8.90;99.90
44579;DHT22;37422;51.402;0.016;2023-01-13T17:12:36;8.90;99.90
44579;DHT22;37422;51.402;0.016;2023-01-13T17:15:05;8.80;99.90
44579;DHT22;37422;51.402;0.016;2023-01-13T17:17:33;8.80;99.90
44579;DHT22;37422;51.402;0.016;2023-01-13T17:20:03;8.80;99.90
44579;DHT22;37422;51.402;0.016;2023-01-13T17:22:52;8.70;99.90
44579;DHT22;37422;51.402;0.016;2023-01-13T17:26:56;8.70;99.90
44579;DHT22;37422;51.402;0.016;2023-01-13T17:30:33;8.60;99.90
44579;DHT22;37422;51.402;0.016;2023-01-13T17:33:44;8.50;99.90
44579;DHT22;37422;51.402;0.016;2023-01-13T17:37:35;8.40;99.90
44579;DHT22;37422;51.402;0.016;2023-01-13T17:42:18;8.40;99.90
44579;DHT22;37422;51.402;0.016;2023-01-13T17:46:44;8.20;99.90
44579;DHT22;37422;51.402;0.016;2023-01-13T17:50:19;8.30;99.90
44579;DHT22;37422;51.402;0.016;2023-01-13T17:55:07;8.20;99.90
44579;DHT22;37422;51.402;0.016;2023-01-13T17:59:13;8.20;99.90
44579;DHT22;37422;51.402;0.016;2023-01-13T18:03:28;8.10;99.90
44579;DHT22;37422;51.402;0.016;2023-01-13T18:07:00;8.10;99.90
44579;DHT22;37422;51.402;0.016;2023-01-13T18:10:45;8.00;99.90
44579;DHT22;37422;51.402;0.016;2023-01-13T18:17:43;7.90;99.90
44579;DHT22;37422;51.402;0.016;2023-01-13T18:20:54;7.90;99.90
44579;DHT22;37422;51.402;0.016;2023-01-13T18:24:22;7.90;99.90
44579;DHT22;37422;51.402;0.016;2023-01-13T18:27:55;7.80;99.90
44579;DHT22;37422;51.402;0.016;2023-01-13T18:34:46;7.70;99.90
44579;DHT22;37422;51.402;0.016;2023-01-13T18:38:13;7.70;99.90
44579;DHT22;37422;51.402;0.016;2023-01-13T18:41:51;7.60;99.90
44579;DHT22;37422;51.402;0.016;2023-01-13T18:44:51;7.60;99.90
44579;DHT22;37422;51.402;0.016;2023-01-13T18:47:52;7.50;99.90
44579;DHT22;37422;51.402;0.016;2023-01-13T18:50:42;7.50;99.90
44579;DHT22;37422;51.402;0.016;2023-01-13T18:53:33;7.50;99.90
44579;DHT22;37422;51.402;0.016;2023-01-13T18:56:02;7.50;99.90
44579;DHT22;37422;51.402;0.016;2023-01-13T18:58:42;7.50;99.90
44579;DHT22;37422;51.402;0.016;2023-01-13T19:01:42;7.50;99.90
44579;DHT22;37422;51.402;0.016;2023-01-13T19:04:28;7.50;99.90
44579;DHT22;37422;51.402;0.016;2023-01-13T19:07:14;7.50;99.90
44579;DHT22;37422;51.402;0.016;2023-01-13T19:10:01;7.50;99.90
44579;DHT22;37422;51.402;0.016;2023-01-13T19:12:36;7.50;99.90
44579;DHT22;37422;51.402;0.016;2023-01-13T19:15:05;7.50;99.90
44579;DHT22;37422;51.402;0.016;2023-01-13T19:17:37;7.40;99.90
44579;DHT22;37422;51.402;0.016;2023-01-13T19:20:07;7.40;99.90
44579;DHT22;37422;51.402;0.016;2023-01-13T19:22:35;7.40;99.90
44579;DHT22;37422;51.402;0.016;2023-01-13T19:25:06;7.40;99.90
44579;DHT22;37422;51.402;0.016;2023-01-13T19:27:34;7.30;99.90
44579;DHT22;37422;51.402;0.016;2023-01-13T19:30:06;7.20;99.90
44579;DHT22;37422;51.402;0.016;2023-01-13T19:32:58;7.30;99.90
44579;DHT22;37422;51.402;0.016;2023-01-13T19:35:30;7.30;99.90
44579;DHT22;37422;51.402;0.016;2023-01-13T19:37:58;7.30;99.90
44579;DHT22;37422;51.402;0.016;2023-01-13T19:40:26;7.20;99.90
44579;DHT22;37422;51.402;0.016;2023-01-13T19:42:54;7.30;99.90
44579;DHT22;37422;51.402;0.016;2023-01-13T19:45:42;7.20;99.90
44579;DHT22;37422;51.402;0.016;2023-01-13T19:48:18;7.10;99.90
44579;DHT22;37422;51.402;0.016;2023-01-13T19:50:49;7.20;99.90
44579;DHT22;37422;51.402;0.016;2023-01-13T19:53:20;7.20;99.90
44579;DHT22;37422;51.402;0.016;2023-01-13T19:55:57;7.20;99.90
44579;DHT22;37422;51.402;0.016;2023-01-13T19:58:26;7.20;99.90
44579;DHT22;37422;51.402;0.016;2023-01-13T20:00:59;7.20;99.90
44579;DHT22;37422;51.402;0.016;2023-01-13T20:03:31;7.10;99.90
44579;DHT22;37422;51.402;0.016;2023-01-13T20:06:06;7.20;99.90
44579;DHT22;37422;51.402;0.016;2023-01-13T20:08:39;7.10;99.90
44579;DHT22;37422;51.402;0.016;2023-01-13T20:11:13;7.10;99.90
44579;DHT22;37422;51.402;0.016;2023-01-13T20:13:50;7.10;99.90
44579;DHT22;37422;51.402;0.016;2023-01-13T20:16:20;7.10;99.90
44579;DHT22;37422;51.402;0.016;2023-01-13T20:18:49;7.10;99.90
44579;DHT22;37422;51.402;0.016;2023-01-13T20:21:18;7.10;99.90
44579;DHT22;37422;51.402;0.016;2023-01-13T20:23:50;7.10;99.90